Time;durP1;ratioP1;P1;durP2;ratioP2;P2;SDS_P1;SDS_P2;PMS_P1;PMS_P2;Temp;Humidity;BMP_temperature;BMP_pressure;BME280_temperature;BME280_humidity;BME280_pressure;Samples;Min_cycle;Max_cycle;Signal;HPM_P1;HPM_P2
2021/01/07 00:00:47;;;;;;;23.52;13.60;;;;;;;3.55;100.00;102223.38;5072737;28;20044;-69
2021/01/07 00:03:13;;;;;;;19.77;12.57;;;;;;;3.53;100.00;102217.28;5054775;28;20041;-70
2021/01/07 00:05:40;;;;;;;23.80;12.30;;;;;;;3.50;100.00;102221.16;5072839;28;20370;-73
2021/01/07 00:08:05;;;;;;;19.42;11.48;;;;;;;3.49;100.00;102218.63;5072653;28;20467;-70
2021/01/07 00:10:31;;;;;;;21.75;12.00;;;;;;;3.46;100.00;102224.31;5072848;28;20046;-71
2021/01/07 00:12:56;;;;;;;20.33;11.63;;;;;;;3.44;100.00;102215.53;5071668;28;20040;-70
2021/01/07 00:15:22;;;;;;;18.48;11.63;;;;;;;3.44;100.00;102215.53;5072451;28;20044;-70
2021/01/07 00:17:47;;;;;;;19.15;11.30;;;;;;;3.42;100.00;102212.16;5072585;28;20043;-70
2021/01/07 00:20:14;;;;;;;20.73;12.45;;;;;;;3.39;100.00;102217.88;5072347;28;20151;-69
2021/01/07 00:22:40;;;;;;;19.52;11.18;;;;;;;3.37;100.00;102215.34;5072292;28;20044;-70
2021/01/07 00:25:08;;;;;;;26.02;12.05;;;;;;;3.36;100.00;102212.81;5072354;28;20047;-69
2021/01/07 00:27:34;;;;;;;22.90;12.50;;;;;;;3.36;100.00;102215.50;5072082;28;20123;-70
2021/01/07 00:30:00;;;;;;;22.88;12.63;;;;;;;3.35;100.00;102208.44;5072015;28;20043;-70
2021/01/07 00:32:26;;;;;;;21.25;11.73;;;;;;;3.32;100.00;102207.75;5072221;28;20135;-70
2021/01/07 00:34:52;;;;;;;18.83;11.40;;;;;;;3.30;100.00;102198.13;5072091;28;20534;-70
2021/01/07 00:37:18;;;;;;;19.88;12.32;;;;;;;3.27;100.00;102193.84;5072087;28;20128;-69
2021/01/07 00:39:43;;;;;;;20.27;11.20;;;;;;;3.25;100.00;102195.88;5071877;28;20048;-71
2021/01/07 00:42:09;;;;;;;20.15;11.40;;;;;;;3.23;100.00;102203.28;5071953;28;20474;-67
2021/01/07 00:44:35;;;;;;;20.77;11.70;;;;;;;3.22;100.00;102189.97;5071815;28;20425;-70
2021/01/07 00:47:01;;;;;;;17.17;11.43;;;;;;;3.18;100.00;102189.44;5071798;28;20040;-70
2021/01/07 00:49:27;;;;;;;21.73;12.02;;;;;;;3.15;100.00;102187.06;5071749;28;20082;-69
2021/01/07 00:51:52;;;;;;;20.20;12.52;;;;;;;3.13;100.00;102191.78;5071713;28;20028;-69
2021/01/07 00:54:18;;;;;;;16.63;10.70;;;;;;;3.10;100.00;102180.44;5072107;28;20051;-69
2021/01/07 00:56:44;;;;;;;19.13;11.68;;;;;;;3.08;100.00;102188.69;5071761;28;20036;-69
2021/01/07 00:59:11;;;;;;;22.35;11.77;;;;;;;3.06;100.00;102189.88;5071471;28;20048;-72
2021/01/07 01:01:47;;;;;;;20.50;11.35;;;;;;;3.03;100.00;102185.63;5071521;28;20064;-70
2021/01/07 01:04:13;;;;;;;19.92;11.25;;;;;;;3.01;100.00;102188.50;5071458;28;20478;-70
2021/01/07 01:06:39;;;;;;;20.65;11.50;;;;;;;2.98;100.00;102185.28;5071606;28;20068;-69
2021/01/07 01:09:06;;;;;;;22.27;11.57;;;;;;;2.95;100.00;102183.75;5071199;28;20371;-69
2021/01/07 01:11:52;;;;;;;20.58;11.88;;;;;;;2.91;100.00;102181.50;5071268;28;20052;-69
2021/01/07 01:14:19;;;;;;;20.58;11.95;;;;;;;2.90;100.00;102179.81;5071350;28;20036;-69
2021/01/07 01:16:51;;;;;;;22.35;12.65;;;;;;;2.85;100.00;102177.59;5053411;28;20041;-69
2021/01/07 01:19:18;;;;;;;20.55;11.80;;;;;;;2.81;100.00;102178.09;5071093;28;20060;-69
2021/01/07 01:21:44;;;;;;;22.20;11.27;;;;;;;2.78;100.00;102175.69;5071224;28;20048;-69
2021/01/07 01:24:10;;;;;;;20.73;11.93;;;;;;;2.72;100.00;102178.00;5071107;28;20465;-68
2021/01/07 01:26:36;;;;;;;17.17;10.90;;;;;;;2.71;100.00;102170.94;5071089;28;20044;-69
2021/01/07 01:29:02;;;;;;;19.08;11.30;;;;;;;2.70;100.00;102179.19;5071005;28;20040;-71
2021/01/07 01:31:28;;;;;;;18.80;12.07;;;;;;;2.67;100.00;102169.56;5071138;28;20628;-69
2021/01/07 01:33:53;;;;;;;22.73;11.30;;;;;;;2.66;100.00;102170.56;5070993;28;20072;-68
2021/01/07 01:36:26;;;;;;;19.08;11.07;;;;;;;2.64;100.00;102163.63;5052761;28;20067;-68
2021/01/07 01:38:52;;;;;;;18.67;11.00;;;;;;;2.61;100.00;102163.97;5052874;28;20534;-68
2021/01/07 01:41:18;;;;;;;14.27;10.48;;;;;;;2.58;100.00;102158.84;5070982;28;20033;-69
2021/01/07 01:43:43;;;;;;;19.73;11.95;;;;;;;2.55;100.00;102160.00;5070854;28;20040;-69
2021/01/07 01:46:09;;;;;;;18.63;10.85;;;;;;;2.53;100.00;102164.72;5070903;28;20040;-69
2021/01/07 01:48:35;;;;;;;20.55;10.63;;;;;;;2.52;100.00;102171.13;5070793;28;20497;-69
2021/01/07 01:51:01;;;;;;;23.17;11.98;;;;;;;2.51;100.00;102169.44;5070792;28;20047;-69
2021/01/07 01:53:26;;;;;;;19.92;11.65;;;;;;;2.48;100.00;102169.75;5070768;28;20033;-70
2021/01/07 01:55:52;;;;;;;21.60;11.82;;;;;;;2.47;100.00;102173.44;5070956;28;20079;-69
2021/01/07 01:58:18;;;;;;;19.75;12.15;;;;;;;2.43;100.00;102164.00;5070716;28;20400;-69
2021/01/07 02:00:44;;;;;;;24.80;11.73;;;;;;;2.42;100.00;102173.91;5070600;28;20052;-69
2021/01/07 02:03:10;;;;;;;21.58;10.75;;;;;;;2.39;100.00;102170.69;5070771;28;20036;-69
2021/01/07 02:05:37;;;;;;;20.42;11.65;;;;;;;2.38;100.00;102168.97;5070660;28;20039;-70
2021/01/07 02:08:03;;;;;;;19.85;11.38;;;;;;;2.38;100.00;102172.53;5070581;28;20047;-71
2021/01/07 02:10:31;;;;;;;22.77;13.45;;;;;;;2.38;100.00;102168.97;5070492;28;20040;-70
2021/01/07 02:12:58;;;;;;;20.13;11.88;;;;;;;2.37;100.00;102170.00;5070728;28;20068;-69
2021/01/07 02:15:23;;;;;;;20.55;11.93;;;;;;;2.36;100.00;102176.38;5070531;28;20040;-69
2021/01/07 02:17:50;;;;;;;31.45;13.07;;;;;;;2.34;100.00;102175.69;5070648;28;20553;-70
2021/01/07 02:20:22;;;;;;;19.48;12.00;;;;;;;2.33;100.00;102171.31;5070428;28;20037;-69
2021/01/07 02:22:51;;;;;;;19.52;10.98;;;;;;;2.30;100.00;102175.16;5070580;28;20032;-69
2021/01/07 02:25:17;;;;;;;21.50;11.35;;;;;;;2.29;100.00;102169.94;5052518;28;20461;-69
2021/01/07 02:27:43;;;;;;;23.90;12.07;;;;;;;2.26;100.00;102170.25;5070481;28;20275;-69
2021/01/07 02:30:08;;;;;;;21.00;10.90;;;;;;;2.25;100.00;102168.53;5070396;28;20068;-69
2021/01/07 02:32:34;;;;;;;19.38;10.77;;;;;;;2.22;100.00;102168.84;5070397;28;20044;-69
2021/01/07 02:34:59;;;;;;;17.63;10.65;;;;;;;2.19;100.00;102174.56;5071847;28;20044;-70
2021/01/07 02:37:25;;;;;;;18.77;10.95;;;;;;;2.15;100.00;102173.16;5056249;28;20058;-69
2021/01/07 02:39:51;;;;;;;25.00;11.38;;;;;;;2.13;100.00;102164.41;5056123;28;20056;-69
2021/01/07 02:42:16;;;;;;;19.35;9.80;;;;;;;2.09;100.00;102170.09;5056209;28;20036;-70
2021/01/07 02:44:42;;;;;;;17.92;10.23;;;;;;;2.07;100.00;102166.69;5056354;28;20044;-70
2021/01/07 02:47:07;;;;;;;29.52;12.10;;;;;;;2.06;100.00;102173.06;5074105;28;20120;-70
2021/01/07 02:49:33;;;;;;;24.95;11.27;;;;;;;2.05;100.00;102173.22;5073859;28;20045;-69
2021/01/07 02:51:58;;;;;;;16.05;10.38;;;;;;;2.04;100.00;102182.31;5074065;28;20056;-69
2021/01/07 02:54:24;;;;;;;21.00;10.65;;;;;;;2.01;100.00;102183.47;5074013;28;20127;-69
2021/01/07 02:56:49;;;;;;;22.45;10.75;;;;;;;1.99;100.00;102180.09;5074197;28;20032;-69
2021/01/07 02:59:15;;;;;;;20.98;10.38;;;;;;;1.98;100.00;102174.84;5055617;28;20536;-71
2021/01/07 03:01:40;;;;;;;16.38;9.43;;;;;;;1.98;100.00;102177.56;5074049;28;20044;-69
2021/01/07 03:04:06;;;;;;;16.20;9.13;;;;;;;1.97;100.00;102171.31;5055767;28;20041;-70
2021/01/07 03:06:32;;;;;;;15.50;8.88;;;;;;;1.97;100.00;102175.88;5073759;28;20123;-69
2021/01/07 03:08:57;;;;;;;13.90;8.45;;;;;;;1.99;100.00;102174.69;5073492;28;20044;-69
2021/01/07 03:11:23;;;;;;;14.38;8.07;;;;;;;2.02;100.00;102178.94;5073743;28;20070;-69
2021/01/07 03:13:48;;;;;;;19.42;8.02;;;;;;;2.04;100.00;102169.69;5073525;28;20466;-69
2021/01/07 03:16:14;;;;;;;17.33;9.25;;;;;;;2.03;100.00;102173.38;5073676;28;20033;-69
2021/01/07 03:18:40;;;;;;;17.02;8.45;;;;;;;2.05;100.00;102173.22;5055617;28;20109;-69
2021/01/07 03:21:05;;;;;;;20.30;8.98;;;;;;;2.05;100.00;102174.06;5073490;28;20441;-69
2021/01/07 03:23:31;;;;;;;17.05;9.43;;;;;;;2.05;100.00;102171.38;5073683;28;20032;-68
2021/01/07 03:25:57;;;;;;;21.33;10.88;;;;;;;2.04;100.00;102172.38;5073358;28;20058;-69
2021/01/07 03:28:23;;;;;;;16.90;9.25;;;;;;;2.03;100.00;102159.91;5073223;28;20067;-69
2021/01/07 03:30:48;;;;;;;18.90;9.00;;;;;;;2.01;100.00;102164.63;5073332;28;20040;-69
2021/01/07 03:33:14;;;;;;;17.17;9.80;;;;;;;1.99;100.00;102160.38;5073347;28;20037;-70
2021/01/07 03:35:39;;;;;;;18.35;9.60;;;;;;;1.95;100.00;102157.16;5073234;28;20060;-69
2021/01/07 03:38:05;;;;;;;18.60;10.70;;;;;;;1.93;100.00;102156.47;5073255;28;20082;-69
2021/01/07 03:40:31;;;;;;;20.45;9.73;;;;;;;1.92;100.00;102165.56;5073077;28;20446;-69
2021/01/07 03:42:57;;;;;;;21.40;10.38;;;;;;;1.92;100.00;102162.84;5073212;28;20474;-69
2021/01/07 03:45:22;;;;;;;18.17;9.93;;;;;;;1.92;100.00;102167.41;5072864;28;20036;-70
2021/01/07 03:47:48;;;;;;;18.58;9.32;;;;;;;1.91;100.00;102166.56;5071851;28;20498;-69
2021/01/07 03:50:13;;;;;;;17.52;9.70;;;;;;;1.89;100.00;102163.13;5072988;28;20470;-68
2021/01/07 03:52:39;;;;;;;18.80;9.95;;;;;;;1.88;100.00;102161.44;5072884;28;20389;-70
2021/01/07 03:55:06;;;;;;;20.58;9.70;;;;;;;1.87;100.00;102173.22;5072835;28;20491;-68
2021/01/07 03:57:32;;;;;;;16.75;8.60;;;;;;;1.83;100.00;102163.75;5073191;28;20086;-69
2021/01/07 03:59:58;;;;;;;16.20;9.32;;;;;;;1.80;100.00;102164.06;5072525;28;20049;-69
2021/01/07 04:02:23;;;;;;;21.65;9.98;;;;;;;1.78;100.00;102160.69;5072662;28;20482;-70
2021/01/07 04:04:49;;;;;;;17.73;9.38;;;;;;;1.77;100.00;102161.69;5072744;28;20111;-70
2021/01/07 04:07:14;;;;;;;26.58;10.00;;;;;;;1.74;100.00;102165.53;5054645;28;20474;-69
2021/01/07 04:09:40;;;;;;;16.48;9.43;;;;;;;1.72;100.00;102163.97;5072446;28;20032;-70
2021/01/07 04:12:06;;;;;;;20.45;9.88;;;;;;;1.69;100.00;102162.44;5072559;28;20426;-69
2021/01/07 04:14:32;;;;;;;27.67;10.32;;;;;;;1.67;100.00;102160.88;5072434;28;20379;-70
2021/01/07 04:16:58;;;;;;;18.75;11.00;;;;;;;1.68;100.00;102170.66;5072403;28;20047;-69
2021/01/07 04:19:24;;;;;;;20.08;10.45;;;;;;;1.65;100.00;102166.44;5072259;28;20044;-69
2021/01/07 04:21:49;;;;;;;21.60;10.05;;;;;;;1.65;100.00;102165.59;5072451;28;20078;-69
2021/01/07 04:24:15;;;;;;;20.98;11.48;;;;;;;1.64;100.00;102170.13;5054384;28;20132;-71
2021/01/07 04:26:44;;;;;;;17.60;10.45;;;;;;;1.63;100.00;102164.91;5072324;28;20039;-69
2021/01/07 04:29:11;;;;;;;20.92;10.77;;;;;;;1.63;100.00;102178.34;5071985;28;20467;-69
2021/01/07 04:31:36;;;;;;;19.98;11.10;;;;;;;1.59;100.00;102177.81;5072092;28;20036;-69
2021/01/07 04:34:02;;;;;;;21.08;10.50;;;;;;;1.59;100.00;102182.34;5072151;28;20467;-69
2021/01/07 04:36:28;;;;;;;20.98;11.50;;;;;;;1.57;100.00;102177.13;5072012;28;20036;-70
2021/01/07 04:38:54;;;;;;;17.05;9.88;;;;;;;1.55;100.00;102181.78;5071998;28;20094;-70
2021/01/07 04:41:21;;;;;;;19.83;11.70;;;;;;;1.52;100.00;102180.25;5071945;28;20034;-70
2021/01/07 04:43:47;;;;;;;20.77;11.60;;;;;;;1.49;100.00;102188.63;5071951;28;20044;-69
2021/01/07 04:46:13;;;;;;;21.42;11.13;;;;;;;1.47;100.00;102185.25;5071744;28;20047;-71
2021/01/07 04:48:39;;;;;;;20.80;10.88;;;;;;;1.44;100.00;102180.16;5071643;28;20045;-69
2021/01/07 04:51:05;;;;;;;24.80;11.38;;;;;;;1.41;100.00;102187.69;5054046;28;20454;-70
2021/01/07 04:53:31;;;;;;;20.15;11.27;;;;;;;1.38;100.00;102180.75;5071760;28;20041;-69
2021/01/07 04:55:57;;;;;;;18.27;10.73;;;;;;;1.34;100.00;102173.97;5071835;28;20090;-69
2021/01/07 04:58:22;;;;;;;22.17;11.15;;;;;;;1.32;100.00;102181.34;5071202;28;20032;-71
2021/01/07 05:00:48;;;;;;;25.60;11.85;;;;;;;1.31;100.00;102185.03;5071504;28;20416;-69
2021/01/07 05:03:21;;;;;;;21.17;10.85;;;;;;;1.29;100.00;102181.66;5036872;28;20040;-68
2021/01/07 05:05:51;;;;;;;17.63;10.18;;;;;;;1.25;100.00;102177.56;5071527;28;20068;-69
2021/01/07 05:08:20;;;;;;;24.15;11.75;;;;;;;1.23;100.00;102174.19;5071402;28;20032;-71
2021/01/07 05:10:46;;;;;;;19.77;11.18;;;;;;;1.22;100.00;102174.34;5071396;28;20032;-68
2021/01/07 05:13:13;;;;;;;23.10;11.10;;;;;;;1.19;100.00;102175.44;5071353;28;20081;-68
2021/01/07 05:15:40;;;;;;;20.83;11.23;;;;;;;1.18;100.00;102179.13;5071249;28;20471;-70
2021/01/07 05:18:06;;;;;;;20.70;11.48;;;;;;;1.17;100.00;102177.44;5071259;28;20768;-69
2021/01/07 05:20:33;;;;;;;20.33;10.52;;;;;;;1.15;100.00;102163.28;5071114;28;20086;-68
2021/01/07 05:23:02;;;;;;;25.30;10.57;;;;;;;1.15;100.00;102176.75;5071165;28;20127;-69
2021/01/07 05:25:29;;;;;;;20.00;10.98;;;;;;;1.12;100.00;102158.22;5071176;28;20036;-71
2021/01/07 05:28:06;;;;;;;23.42;11.85;;;;;;;1.12;100.00;102168.97;5071117;28;20036;-69
2021/01/07 05:30:33;;;;;;;18.15;11.02;;;;;;;1.11;100.00;102161.91;5071008;28;20123;-69
2021/01/07 05:33:09;;;;;;;25.98;12.27;;;;;;;1.07;100.00;102165.88;5071097;28;20554;-71
2021/01/07 05:35:37;;;;;;;24.02;11.93;;;;;;;1.05;100.00;102160.66;5070997;28;20055;-69
2021/01/07 05:38:06;;;;;;;25.05;12.35;;;;;;;1.05;100.00;102159.81;5071016;28;20498;-70
2021/01/07 05:40:33;;;;;;;20.02;11.48;;;;;;;1.05;100.00;102162.50;5052817;28;20036;-69
2021/01/07 05:43:01;;;;;;;21.73;10.95;;;;;;;1.03;100.00;102165.31;5053118;28;20036;-69
2021/01/07 05:45:38;;;;;;;25.63;12.02;;;;;;;1.01;100.00;102158.38;5071154;28;20029;-69
2021/01/07 05:48:04;;;;;;;18.95;11.65;;;;;;;0.97;100.00;102157.00;5070873;28;20033;-69
2021/01/07 05:50:40;;;;;;;20.33;11.20;;;;;;;0.95;100.00;102156.28;5070757;28;20033;-69
2021/01/07 05:53:06;;;;;;;22.83;11.75;;;;;;;0.92;100.00;102161.97;5070767;28;20059;-69
2021/01/07 05:55:32;;;;;;;19.80;11.00;;;;;;;0.89;100.00;102158.59;5070783;28;20040;-70
2021/01/07 05:58:00;;;;;;;27.13;12.10;;;;;;;0.86;100.00;102156.16;5070860;28;20482;-69
2021/01/07 06:00:32;;;;;;;22.50;11.60;;;;;;;0.83;100.00;102153.78;5070602;28;20052;-69
2021/01/07 06:02:59;;;;;;;19.05;11.48;;;;;;;0.82;100.00;102157.47;5070774;28;20092;-71
2021/01/07 06:05:26;;;;;;;18.88;11.32;;;;;;;0.82;100.00;102154.78;5070688;28;20036;-70
2021/01/07 06:07:54;;;;;;;23.98;12.20;;;;;;;0.81;100.00;102155.75;5070576;28;20120;-68
2021/01/07 06:10:20;;;;;;;23.17;11.73;;;;;;;0.81;100.00;102150.38;5072609;28;20028;-69
2021/01/07 06:12:46;;;;;;;22.33;12.30;;;;;;;0.81;100.00;102153.06;5074908;28;20483;-69
2021/01/07 06:15:16;;;;;;;22.50;12.32;;;;;;;0.81;100.00;102150.38;5074778;28;20047;-69
2021/01/07 06:17:43;;;;;;;23.55;12.15;;;;;;;0.79;100.00;102152.38;5074945;28;20463;-70
2021/01/07 06:20:15;;;;;;;24.17;12.90;;;;;;;0.79;100.00;102155.06;5074603;28;20135;-70
2021/01/07 06:22:47;;;;;;;27.55;15.32;;;;;;;0.79;100.00;102157.75;5074732;28;20039;-69
2021/01/07 06:25:14;;;;;;;26.75;13.38;;;;;;;0.80;100.00;102154.06;5074571;28;20036;-69
2021/01/07 06:27:41;;;;;;;22.15;13.25;;;;;;;0.78;100.00;102149.84;5074547;28;20036;-69
2021/01/07 06:30:07;;;;;;;24.48;12.55;;;;;;;0.77;100.00;102154.38;5039806;28;20390;-70
2021/01/07 06:32:37;;;;;;;24.65;12.63;;;;;;;0.76;100.00;102158.06;5074454;28;20028;-69
2021/01/07 06:35:08;;;;;;;24.27;13.18;;;;;;;0.73;100.00;102158.34;5074426;28;20044;-69
2021/01/07 06:37:42;;;;;;;25.00;12.43;;;;;;;0.73;100.00;102162.88;5074447;28;20113;-70
2021/01/07 06:40:10;;;;;;;26.27;12.77;;;;;;;0.71;100.00;102159.50;5074289;28;20033;-70
2021/01/07 06:42:37;;;;;;;27.10;12.90;;;;;;;0.69;100.00;102165.00;5074228;28;20043;-70
2021/01/07 06:45:04;;;;;;;26.05;13.43;;;;;;;0.68;100.00;102165.97;5074094;28;20136;-68
2021/01/07 06:47:31;;;;;;;23.20;13.00;;;;;;;0.68;100.00;102165.13;5074102;28;20055;-69
2021/01/07 06:49:58;;;;;;;22.58;12.38;;;;;;;0.66;100.00;102170.66;5073916;28;20070;-70
2021/01/07 06:52:25;;;;;;;23.17;12.38;;;;;;;0.64;100.00;102163.75;5074169;28;20040;-69
2021/01/07 06:54:56;;;;;;;26.23;13.55;;;;;;;0.63;100.00;102165.56;5074000;28;20471;-70
2021/01/07 06:57:22;;;;;;;25.27;12.95;;;;;;;0.63;100.00;102172.81;5074420;28;20054;-68
2021/01/07 07:00:03;;;;;;;27.95;12.82;;;;;;;0.61;100.00;102170.25;5073573;28;20049;-70
2021/01/07 07:02:29;;;;;;;25.17;12.85;;;;;;;0.62;100.00;102171.09;5073925;28;20032;-70
2021/01/07 07:04:59;;;;;;;25.75;12.88;;;;;;;0.61;100.00;102175.63;5073861;28;20124;-70
2021/01/07 07:07:30;;;;;;;26.70;12.15;;;;;;;0.61;100.00;102175.63;5073859;28;20429;-70
2021/01/07 07:10:17;;;;;;;27.20;13.07;;;;;;;0.61;100.00;102181.00;5073524;28;20489;-70
2021/01/07 07:12:51;;;;;;;19.85;11.82;;;;;;;0.59;100.00;102172.25;5073606;28;20066;-69
2021/01/07 07:15:18;;;;;;;22.20;12.95;;;;;;;0.60;100.00;102173.94;5055588;28;20071;-69
2021/01/07 07:17:47;;;;;;;21.63;11.95;;;;;;;0.59;100.00;102173.09;5073614;28;20046;-70
2021/01/07 07:20:20;;;;;;;27.95;12.75;;;;;;;0.59;100.00;102172.25;5073257;28;20048;-70
2021/01/07 07:22:46;;;;;;;25.15;13.40;;;;;;;0.60;100.00;102171.25;5073508;28;20033;-70
2021/01/07 07:25:20;;;;;;;21.17;12.05;;;;;;;0.61;100.00;102175.63;5073533;28;20043;-70
2021/01/07 07:27:51;;;;;;;19.95;11.07;;;;;;;0.61;100.00;102191.75;5073485;28;20045;-70
2021/01/07 07:30:30;;;;;;;23.52;12.27;;;;;;;0.59;100.00;102189.22;5073232;28;20040;-70
2021/01/07 07:32:56;;;;;;;22.98;12.27;;;;;;;0.58;100.00;102187.53;5073271;28;20037;-71
2021/01/07 07:35:24;;;;;;;23.23;12.38;;;;;;;0.59;100.00;102191.06;5073329;28;20475;-70
2021/01/07 07:37:51;;;;;;;25.83;13.30;;;;;;;0.59;100.00;102183.84;5073310;28;20493;-69
2021/01/07 07:40:34;;;;;;;25.33;12.25;;;;;;;0.57;100.00;102187.69;5073422;28;20036;-69
2021/01/07 07:43:01;;;;;;;22.65;12.80;;;;;;;0.56;100.00;102194.06;5073215;28;20040;-70
2021/01/07 07:45:28;;;;;;;22.67;13.07;;;;;;;0.54;100.00;102198.72;5072977;28;20071;-69
2021/01/07 07:47:54;;;;;;;23.70;12.88;;;;;;;0.51;100.00;102198.97;5072977;28;20040;-68
2021/01/07 07:50:21;;;;;;;24.90;13.48;;;;;;;0.49;100.00;102199.13;5072951;28;20136;-70
2021/01/07 07:52:47;;;;;;;25.15;13.63;;;;;;;0.48;100.00;102201.97;5073129;28;20040;-69
2021/01/07 07:55:13;;;;;;;32.42;13.80;;;;;;;0.46;100.00;102195.88;5072892;28;20094;-69
2021/01/07 07:57:49;;;;;;;25.15;13.48;;;;;;;0.43;100.00;102199.72;5073022;28;20032;-69
2021/01/07 08:00:17;;;;;;;25.45;13.18;;;;;;;0.42;100.00;102197.16;5054825;28;20498;-69
2021/01/07 08:02:43;;;;;;;30.17;13.38;;;;;;;0.41;100.00;102206.22;5072799;28;20557;-70
2021/01/07 08:05:11;;;;;;;22.05;12.63;;;;;;;0.39;100.00;102208.22;5073043;28;20071;-69
2021/01/07 08:07:36;;;;;;;28.83;13.20;;;;;;;0.38;100.00;102207.34;5072760;28;20078;-69
2021/01/07 08:10:08;;;;;;;25.92;13.40;;;;;;;0.37;100.00;102207.50;5072587;28;20036;-69
2021/01/07 08:12:36;;;;;;;24.20;13.23;;;;;;;0.38;100.00;102214.56;5072575;28;20454;-68
2021/01/07 08:15:02;;;;;;;21.30;12.27;;;;;;;0.39;100.00;102216.28;5072574;28;20049;-69
2021/01/07 08:17:28;;;;;;;22.95;13.90;;;;;;;0.39;100.00;102214.44;5072490;28;20036;-70
2021/01/07 08:19:53;;;;;;;24.15;12.65;;;;;;;0.39;100.00;102213.59;5054509;28;20493;-69
2021/01/07 08:22:31;;;;;;;27.77;14.23;;;;;;;0.41;100.00;102225.03;5072411;28;20043;-69
2021/01/07 08:24:59;;;;;;;25.42;12.65;;;;;;;0.41;100.00;102227.72;5072512;28;20506;-69
2021/01/07 08:27:28;;;;;;;29.15;13.20;;;;;;;0.42;100.00;102229.41;5054535;28;20371;-70
2021/01/07 08:29:58;;;;;;;24.40;12.63;;;;;;;0.41;100.00;102223.19;5072295;28;20040;-70
2021/01/07 08:32:34;;;;;;;24.27;13.70;;;;;;;0.42;100.00;102229.41;5071674;28;20044;-69
2021/01/07 08:35:00;;;;;;;22.35;11.60;;;;;;;0.43;100.00;102233.81;5072275;28;20056;-71
2021/01/07 08:37:33;;;;;;;27.83;13.73;;;;;;;0.45;100.00;102234.50;5072134;28;20032;-69
2021/01/07 08:40:06;;;;;;;24.70;12.40;;;;;;;0.46;100.00;102236.19;5070296;28;20029;-67
2021/01/07 08:42:39;;;;;;;22.85;12.60;;;;;;;0.45;100.00;102239.88;5071430;28;20127;-66
2021/01/07 08:45:06;;;;;;;23.42;12.90;;;;;;;0.47;100.00;102237.91;5071890;28;20037;-66
2021/01/07 08:47:32;;;;;;;27.10;13.85;;;;;;;0.45;100.00;102242.56;5053779;28;20044;-67
2021/01/07 08:50:04;;;;;;;26.55;13.93;;;;;;;0.48;100.00;102239.59;5078401;28;20394;-67
2021/01/07 08:52:29;;;;;;;27.45;13.38;;;;;;;0.47;100.00;102246.81;5079940;28;20040;-68
2021/01/07 08:54:55;;;;;;;25.77;13.10;;;;;;;0.49;100.00;102246.66;5071743;28;20041;-64
2021/01/07 08:57:20;;;;;;;23.50;13.57;;;;;;;0.50;100.00;102242.97;5060765;28;20048;-63
2021/01/07 08:59:46;;;;;;;28.92;14.75;;;;;;;0.50;100.00;102242.97;5070927;28;20094;-64
2021/01/07 09:02:12;;;;;;;27.30;13.18;;;;;;;0.53;100.00;102238.19;5071334;28;20041;-65
2021/01/07 09:04:40;;;;;;;30.65;13.95;;;;;;;0.56;100.00;102247.81;5076530;28;20032;-66
2021/01/07 09:07:09;;;;;;;26.10;13.82;;;;;;;0.62;100.00;102241.00;5071208;28;20379;-64
2021/01/07 09:09:48;;;;;;;28.98;14.10;;;;;;;0.66;100.00;102243.25;5067270;28;20067;-63
2021/01/07 09:12:27;;;;;;;27.35;14.63;;;;;;;0.71;100.00;102250.91;5070756;28;20539;-64
2021/01/07 09:15:09;;;;;;;28.20;13.32;;;;;;;0.75;100.00;102241.56;5068328;28;20063;-66
2021/01/07 09:17:52;;;;;;;31.25;14.18;;;;;;;0.81;100.00;102241.81;5069411;28;20029;-65
2021/01/07 09:20:22;;;;;;;26.58;13.50;;;;;;;0.85;100.00;102243.22;5073593;28;20028;-66
2021/01/07 09:22:49;;;;;;;25.17;13.50;;;;;;;0.92;100.00;102250.75;5072191;28;20082;-70
2021/01/07 09:25:17;;;;;;;24.75;13.13;;;;;;;0.93;100.00;102244.38;5071217;28;20032;-71
2021/01/07 09:27:47;;;;;;;27.88;13.65;;;;;;;0.95;100.00;102253.13;5070672;28;20032;-67
2021/01/07 09:30:14;;;;;;;24.38;13.65;;;;;;;0.99;100.00;102238.41;5070573;28;20059;-69
2021/01/07 09:32:40;;;;;;;22.33;12.20;;;;;;;1.03;100.00;102235.25;5070461;28;20040;-67
2021/01/07 09:35:06;;;;;;;27.10;13.07;;;;;;;1.07;100.00;102246.59;5070250;28;20486;-69
2021/01/07 09:37:35;;;;;;;23.63;11.43;;;;;;;1.12;100.00;102244.31;5070515;28;20429;-67
2021/01/07 09:40:02;;;;;;;24.13;12.40;;;;;;;1.17;100.00;102247.41;5070098;28;20035;-67
2021/01/07 09:42:32;;;;;;;23.52;11.90;;;;;;;1.23;100.00;102246.84;5070244;28;20054;-66
2021/01/07 09:44:59;;;;;;;24.55;11.82;;;;;;;1.30;100.00;102241.72;5052844;28;20044;-67
2021/01/07 09:47:25;;;;;;;24.58;11.73;;;;;;;1.33;100.00;102247.63;5070241;28;20029;-68
2021/01/07 09:49:50;;;;;;;22.08;12.27;;;;;;;1.40;100.00;102253.31;5069771;28;20032;-69
2021/01/07 09:52:16;;;;;;;25.55;11.75;;;;;;;1.45;100.00;102254.53;5070826;28;20028;-69
2021/01/07 09:54:42;;;;;;;22.15;12.02;;;;;;;1.53;100.00;102248.41;5067957;28;20044;-68
2021/01/07 09:57:08;;;;;;;22.27;12.85;;;;;;;1.60;100.00;102256.75;5069477;28;20040;-69
2021/01/07 09:59:34;;;;;;;17.80;12.18;;;;;;;1.66;100.00;102258.84;5069702;28;20438;-70
2021/01/07 10:02:08;;;;;;;21.20;12.25;;;;;;;1.70;100.00;102254.84;5069743;28;20032;-69
2021/01/07 10:04:35;;;;;;;22.77;11.52;;;;;;;1.77;100.00;102256.81;5070705;28;20490;-68
2021/01/07 10:07:01;;;;;;;21.05;10.90;;;;;;;1.83;100.00;102255.34;5050644;28;20037;-69
2021/01/07 10:09:27;;;;;;;21.40;12.13;;;;;;;1.89;100.00;102254.75;5067587;28;20039;-67
2021/01/07 10:11:55;;;;;;;19.70;11.55;;;;;;;1.94;100.00;102247.06;5070239;28;20486;-68
2021/01/07 10:14:22;;;;;;;20.60;11.05;;;;;;;2.00;100.00;102249.16;5070310;28;20035;-68
2021/01/07 10:16:56;;;;;;;23.80;11.00;;;;;;;2.07;100.00;102252.91;5070231;28;20444;-68
2021/01/07 10:19:26;;;;;;;20.60;11.50;;;;;;;2.11;100.00;102242.72;5070569;28;20060;-68
2021/01/07 10:22:04;;;;;;;26.77;12.85;;;;;;;2.14;100.00;102237.00;5070031;28;20077;-68
2021/01/07 10:24:34;;;;;;;24.35;13.70;;;;;;;2.19;100.00;102240.09;5070287;28;20087;-69
2021/01/07 10:27:03;;;;;;;30.65;15.60;;;;;;;2.28;100.00;102243.72;5058373;28;20529;-67
2021/01/07 10:29:31;;;;;;;26.70;14.07;;;;;;;2.32;100.00;102245.09;5051437;28;20136;-69
2021/01/07 10:32:08;;;;;;;32.33;15.75;;;;;;;2.38;100.00;102255.25;5070386;28;20389;-68
2021/01/07 10:34:47;;;;;;;26.50;14.57;;;;;;;2.44;100.00;102260.06;5035568;28;20037;-67
2021/01/07 10:37:16;;;;;;;25.25;14.77;;;;;;;2.51;100.00;102254.88;5050346;28;20040;-67
2021/01/07 10:39:43;;;;;;;27.98;15.45;;;;;;;2.57;100.00;102251.56;5053883;28;20036;-67
2021/01/07 10:42:14;;;;;;;26.85;13.57;;;;;;;2.62;100.00;102252.81;5070004;28;20051;-69
2021/01/07 10:44:44;;;;;;;22.35;11.48;;;;;;;2.66;100.00;102243.41;5069703;28;20032;-68
2021/01/07 10:47:11;;;;;;;26.08;12.93;;;;;;;2.74;100.00;102239.91;5069900;28;20040;-67
2021/01/07 10:49:40;;;;;;;23.55;12.90;;;;;;;2.84;100.00;102246.06;5051973;28;20036;-68
2021/01/07 10:52:12;;;;;;;20.88;11.52;;;;;;;2.96;100.00;102249.38;5069724;28;20029;-68
2021/01/07 10:55:16;;;;;;;18.75;11.75;;;;;;;3.06;100.00;102239.28;5069874;28;20047;-68
2021/01/07 10:58:27;;;;;;;21.70;11.73;;;;;;;3.17;100.00;102241.75;5073989;28;20081;-69
2021/01/07 11:01:11;;;;;;;24.10;12.73;;;;;;;3.31;100.00;102241.16;5031354;28;20392;-68
2021/01/07 11:03:58;;;;;;;20.73;12.18;;;;;;;3.43;100.00;102240.84;5033876;28;20034;-70
2021/01/07 11:06:31;;;;;;;19.48;11.25;;;;;;;3.48;100.00;102244.78;5052678;28;20395;-68
2021/01/07 11:09:06;;;;;;;17.75;10.85;;;;;;;3.54;100.00;102238.72;5053376;28;20404;-69
2021/01/07 11:11:40;;;;;;;15.52;10.48;;;;;;;3.64;100.00;102244.00;5048914;28;20040;-69
2021/01/07 11:14:17;;;;;;;18.47;10.80;;;;;;;3.71;100.00;102233.41;5053155;28;20064;-66